createdAt,value
2022-08-01T00:02:32.973Z,23.17
2022-08-01T00:05:19.284Z,19.93
2022-08-01T00:08:06.095Z,24.97
2022-08-01T00:10:52.291Z,23.43
2022-08-01T00:13:38.405Z,21.37
2022-08-01T00:16:26.219Z,22.93
2022-08-01T00:19:12.517Z,23.37
2022-08-01T00:21:58.886Z,22.83
2022-08-01T00:24:44.996Z,22.93
2022-08-01T00:27:32.467Z,20.50
2022-08-01T00:30:24.059Z,18.77
2022-08-01T00:33:11.426Z,21.13
2022-08-01T00:35:58.148Z,18.73
2022-08-01T00:38:44.686Z,18.57
2022-08-01T00:41:30.848Z,18.80
2022-08-01T00:44:17.198Z,19.70
2022-08-01T00:47:04.435Z,22.87
2022-08-01T00:49:52.404Z,20.20
2022-08-01T00:52:39.032Z,20.17
2022-08-01T00:55:25.967Z,20.20
2022-08-01T00:58:12.591Z,22.23
2022-08-01T01:00:59.047Z,22.70
2022-08-01T01:03:59.436Z,22.70
2022-08-01T01:06:53.590Z,20.13
2022-08-01T01:09:47.850Z,21.73
2022-08-01T01:12:40.526Z,22.93
2022-08-01T01:15:32.679Z,21.00
2022-08-01T01:18:24.274Z,20.27
2022-08-01T01:21:32.958Z,23.83
2022-08-01T01:24:27.590Z,21.37
2022-08-01T01:27:23.349Z,21.60
2022-08-01T01:30:11.615Z,20.43
2022-08-01T01:33:02.145Z,28.47
2022-08-01T01:35:54.268Z,24.97
2022-08-01T01:38:43.926Z,21.53
2022-08-01T01:41:32.061Z,20.93
2022-08-01T01:44:20.061Z,22.60
2022-08-01T01:47:08.931Z,23.90
2022-08-01T01:49:57.424Z,22.73
2022-08-01T01:52:46.141Z,20.60
2022-08-01T01:55:33.323Z,21.90
2022-08-01T01:58:38.514Z,21.00
2022-08-01T02:02:08.827Z,21.17
2022-08-01T02:04:38.440Z,21.00
2022-08-01T02:07:26.855Z,17.90
2022-08-01T02:10:14.491Z,26.97
2022-08-01T02:13:05.170Z,22.50
2022-08-01T02:15:59.524Z,25.37
2022-08-01T02:18:46.841Z,19.00
2022-08-01T02:21:50.333Z,21.33
2022-08-01T02:24:39.819Z,20.73
2022-08-01T02:27:29.712Z,22.27
2022-08-01T02:30:17.221Z,18.47
2022-08-01T02:33:09.875Z,19.27
2022-08-01T02:36:30.376Z,21.57
2022-08-01T02:39:15.576Z,16.40
2022-08-01T02:42:07.664Z,16.07
2022-08-01T02:44:56.054Z,18.23
2022-08-01T02:47:44.904Z,14.30
2022-08-01T02:50:33.476Z,16.87
2022-08-01T02:53:22.781Z,15.40
2022-08-01T02:56:35.559Z,15.97
2022-08-01T02:59:26.407Z,17.90
2022-08-01T03:02:14.462Z,15.23
2022-08-01T03:05:02.781Z,14.63
2022-08-01T03:07:49.947Z,17.10
2022-08-01T03:10:38.971Z,17.63
2022-08-01T03:13:27.907Z,12.77
2022-08-01T03:16:15.426Z,13.90
2022-08-01T03:19:03.817Z,14.77
2022-08-01T03:21:51.683Z,13.80
2022-08-01T03:24:41.181Z,14.90
2022-08-01T03:27:27.709Z,14.67
2022-08-01T03:30:16.395Z,15.93
2022-08-01T03:33:04.486Z,13.50
2022-08-01T03:35:54.683Z,14.53
2022-08-01T03:38:42.385Z,15.50
2022-08-01T03:41:34.310Z,16.37
2022-08-01T03:44:29.661Z,13.73
2022-08-01T03:47:19.554Z,11.70
2022-08-01T03:50:12.599Z,12.27
2022-08-01T03:53:02.182Z,12.40
2022-08-01T03:55:49.190Z,14.23
2022-08-01T03:58:35.809Z,15.00
2022-08-01T04:01:22.239Z,14.53
2022-08-01T04:04:10.012Z,13.57
2022-08-01T04:06:56.130Z,13.30
2022-08-01T04:09:43.411Z,12.90
2022-08-01T04:12:29.631Z,11.37
2022-08-01T04:15:16.222Z,13.87
2022-08-01T04:18:02.589Z,15.77
2022-08-01T04:20:50.438Z,14.23
2022-08-01T04:23:37.575Z,16.00
2022-08-01T04:26:25.212Z,12.10
2022-08-01T04:29:13.806Z,11.03
2022-08-01T04:32:01.863Z,12.83
2022-08-01T04:34:50.176Z,12.77
2022-08-01T04:37:39.082Z,17.80
2022-08-01T04:40:28.026Z,12.03
2022-08-01T04:43:15.195Z,13.50
2022-08-01T04:46:04.690Z,13.17
2022-08-01T04:48:51.652Z,14.40
2022-08-01T04:51:37.795Z,12.50
2022-08-01T04:54:25.844Z,11.70
2022-08-01T04:57:12.026Z,14.30
2022-08-01T04:59:58.694Z,12.63
2022-08-01T05:02:44.972Z,13.03
2022-08-01T05:05:31.703Z,13.73
2022-08-01T05:08:18.302Z,15.13
2022-08-01T05:11:06.058Z,13.47
2022-08-01T05:13:52.389Z,14.93
2022-08-01T05:16:38.609Z,14.40
2022-08-01T05:19:25.088Z,11.97
2022-08-01T05:22:12.087Z,14.13
2022-08-01T05:24:58.556Z,14.83
2022-08-01T05:27:47.179Z,16.33
2022-08-01T05:30:35.298Z,14.07
2022-08-01T05:33:22.407Z,15.53
2022-08-01T05:36:08.939Z,14.13
2022-08-01T05:38:55.537Z,15.43
2022-08-01T05:41:42.166Z,13.57
2022-08-01T05:44:30.661Z,15.67
2022-08-01T05:47:16.959Z,17.17
2022-08-01T05:50:03.089Z,15.20
2022-08-01T05:52:49.505Z,14.13
2022-08-01T05:55:36.709Z,15.63
2022-08-01T05:58:22.821Z,13.03
2022-08-01T06:01:10.303Z,12.37
2022-08-01T06:03:56.723Z,12.57
2022-08-01T06:06:42.794Z,11.97
2022-08-01T06:09:29.907Z,10.20
2022-08-01T06:12:16.408Z,13.37
2022-08-01T06:15:02.789Z,10.70
2022-08-01T06:17:50.433Z,12.30
2022-08-01T06:20:36.650Z,10.67
2022-08-01T06:23:31.772Z,7.87
2022-08-01T06:26:19.750Z,12.37
2022-08-01T06:29:05.954Z,9.03
2022-08-01T06:31:52.394Z,11.13
2022-08-01T06:34:40.117Z,10.10
2022-08-01T06:37:30.293Z,11.93
2022-08-01T06:40:17.552Z,14.07
2022-08-01T06:43:04.082Z,14.43
2022-08-01T06:45:50.716Z,12.53
2022-08-01T06:48:40.146Z,15.17
2022-08-01T06:51:27.694Z,12.57
2022-08-01T06:54:13.870Z,14.07
2022-08-01T06:57:00.009Z,15.67
2022-08-01T06:59:52.004Z,13.30
2022-08-01T07:02:41.948Z,13.23
2022-08-01T07:05:28.584Z,13.10
2022-08-01T07:08:16.501Z,11.50
2022-08-01T07:11:02.818Z,10.37
2022-08-01T07:13:49.035Z,10.20
2022-08-01T07:16:35.244Z,11.47
2022-08-01T07:19:21.417Z,12.20
2022-08-01T07:22:08.057Z,9.87
2022-08-01T07:24:58.543Z,10.20
2022-08-01T07:27:45.505Z,11.00
2022-08-01T07:30:32.416Z,10.33
2022-08-01T07:33:18.700Z,8.47
2022-08-01T07:36:05.709Z,10.67
2022-08-01T07:38:55.447Z,9.67
2022-08-01T07:41:52.964Z,8.67
2022-08-01T07:44:48.940Z,7.30
2022-08-01T07:47:35.075Z,7.47
2022-08-01T07:50:21.629Z,7.30
2022-08-01T07:53:07.913Z,8.40
2022-08-01T07:55:55.155Z,6.00
2022-08-01T07:58:43.059Z,7.20
2022-08-01T08:01:29.506Z,7.27
2022-08-01T08:04:15.609Z,8.10
2022-08-01T08:07:02.087Z,6.93
2022-08-01T08:09:51.306Z,5.93
2022-08-01T08:12:37.873Z,5.90
2022-08-01T08:15:25.588Z,7.10
2022-08-01T08:18:11.642Z,5.90
2022-08-01T08:20:57.888Z,5.43
2022-08-01T08:24:02.028Z,7.33
2022-08-01T08:26:48.770Z,6.63
2022-08-01T08:29:38.875Z,4.67
2022-08-01T08:32:26.671Z,3.67
2022-08-01T08:35:17.240Z,2.20
2022-08-01T08:38:09.799Z,2.20
2022-08-01T08:40:58.707Z,2.50
2022-08-01T08:43:45.365Z,3.07
2022-08-01T08:46:34.571Z,2.53
2022-08-01T08:49:27.403Z,2.33
2022-08-01T08:52:23.621Z,2.17
2022-08-01T08:55:10.909Z,2.73
2022-08-01T08:57:58.492Z,3.20
2022-08-01T09:00:45.054Z,5.13
2022-08-01T09:03:35.091Z,2.40
2022-08-01T09:06:23.032Z,0.97
2022-08-01T09:09:10.563Z,1.13
2022-08-01T09:11:58.201Z,0.93
2022-08-01T09:14:48.737Z,0.80
2022-08-01T09:17:42.468Z,0.80
2022-08-01T09:20:31.783Z,0.70
2022-08-01T09:26:12.565Z,0.70
2022-08-01T09:29:00.210Z,0.60
2022-08-01T09:31:48.004Z,0.97
2022-08-01T09:34:34.838Z,0.80
2022-08-01T09:37:37.531Z,1.10
2022-08-01T09:40:23.902Z,1.00
2022-08-01T09:43:15.271Z,1.80
2022-08-01T09:46:07.308Z,2.50
2022-08-01T09:49:00.504Z,3.90
2022-08-01T09:52:00.294Z,1.90
2022-08-01T09:54:56.172Z,1.23
2022-08-01T09:57:43.061Z,0.77
2022-08-01T10:00:45.012Z,0.90
2022-08-01T10:03:31.597Z,0.93
2022-08-01T10:06:24.988Z,0.80
2022-08-01T10:09:12.382Z,0.87
2022-08-01T10:12:01.461Z,0.90
2022-08-01T10:14:50.520Z,0.90
2022-08-01T10:17:50.632Z,0.90
2022-08-01T10:20:38.660Z,1.53
2022-08-01T10:23:40.487Z,1.00
2022-08-01T10:26:28.808Z,1.30
2022-08-01T10:29:45.071Z,0.90
2022-08-01T10:32:28.918Z,1.10
2022-08-01T10:35:18.230Z,1.30
2022-08-01T10:38:25.225Z,1.97
2022-08-01T10:41:12.035Z,1.17
2022-08-01T10:43:59.991Z,1.57
2022-08-01T10:46:50.703Z,1.27
2022-08-01T10:49:45.124Z,0.90
2022-08-01T10:52:35.442Z,0.87
2022-08-01T10:55:26.836Z,1.57
2022-08-01T10:58:15.882Z,5.13
2022-08-01T11:01:28.879Z,1.80
2022-08-01T11:04:17.771Z,0.90
2022-08-01T11:07:07.245Z,1.10
2022-08-01T11:10:14.622Z,1.00
2022-08-01T11:13:04.399Z,1.20
2022-08-01T11:15:50.991Z,1.07
2022-08-01T11:18:38.037Z,1.20
2022-08-01T11:22:03.380Z,0.93
2022-08-01T11:25:00.242Z,1.40
2022-08-01T11:27:49.804Z,1.97
2022-08-01T11:30:36.016Z,1.00
2022-08-01T11:33:50.568Z,1.20
2022-08-01T11:39:44.268Z,1.23
2022-08-01T11:42:30.576Z,1.30
2022-08-01T11:45:18.834Z,1.43
2022-08-01T11:48:19.944Z,1.33
2022-08-01T11:51:23.924Z,1.83
2022-08-01T11:54:12.248Z,1.90
2022-08-01T11:57:00.103Z,2.17
2022-08-01T11:59:50.078Z,1.70
2022-08-01T12:02:59.973Z,2.43
2022-08-01T12:05:46.737Z,1.80
2022-08-01T12:08:35.672Z,1.50
2022-08-01T12:11:22.213Z,1.43
2022-08-01T12:14:09.960Z,2.07
2022-08-01T12:16:56.517Z,1.73
2022-08-01T12:19:44.079Z,3.60
2022-08-01T12:22:30.504Z,1.50
2022-08-01T12:25:17.960Z,2.57
2022-08-01T12:28:05.982Z,2.83
2022-08-01T12:30:52.644Z,3.63
2022-08-01T12:33:38.910Z,1.97
2022-08-01T12:36:30.766Z,2.80
2022-08-01T12:39:16.941Z,3.30
2022-08-01T12:42:03.530Z,2.00
2022-08-01T12:44:52.068Z,1.73
2022-08-01T12:47:39.065Z,2.60
2022-08-01T12:50:29.266Z,1.87
2022-08-01T12:53:19.463Z,2.33
2022-08-01T12:56:08.562Z,1.77
2022-08-01T12:58:55.680Z,1.77
2022-08-01T13:01:42.892Z,3.42
2022-08-01T13:04:29.653Z,2.67
2022-08-01T13:07:15.927Z,1.80
2022-08-01T13:10:03.627Z,2.63
2022-08-01T13:12:54.877Z,2.72
2022-08-01T13:15:44.552Z,1.90
2022-08-01T13:18:33.287Z,2.28
2022-08-01T13:21:21.148Z,2.85
2022-08-01T13:24:10.741Z,2.83
2022-08-01T13:27:00.847Z,2.70
2022-08-01T13:29:50.669Z,3.13
2022-08-01T13:32:37.362Z,2.43
2022-08-01T13:35:23.653Z,2.90
2022-08-01T13:38:09.829Z,2.87
2022-08-01T13:41:00.144Z,2.30
2022-08-01T13:43:58.980Z,2.67
2022-08-01T13:46:49.664Z,3.93
2022-08-01T13:49:38.328Z,2.53
2022-08-01T13:52:27.261Z,3.03
2022-08-01T13:55:13.703Z,3.37
2022-08-01T13:58:00.212Z,5.50
2022-08-01T14:00:47.987Z,3.43
2022-08-01T14:03:34.133Z,5.32
2022-08-01T14:06:22.459Z,6.13
2022-08-01T14:09:17.472Z,3.50
2022-08-01T14:12:05.278Z,3.08
2022-08-01T14:14:54.289Z,3.88
2022-08-01T14:17:47.887Z,4.93
2022-08-01T14:20:35.450Z,5.20
2022-08-01T14:23:21.985Z,4.93
2022-08-01T14:26:12.356Z,4.35
2022-08-01T14:28:59.006Z,2.53
2022-08-01T14:31:45.146Z,4.72
2022-08-01T14:34:32.962Z,3.20
2022-08-01T14:37:19.090Z,5.53
2022-08-01T14:40:10.140Z,4.20
2022-08-01T14:42:56.391Z,3.83
2022-08-01T14:45:42.870Z,4.77
2022-08-01T14:48:30.121Z,4.82
2022-08-01T14:51:17.958Z,3.17
2022-08-01T14:54:04.322Z,5.15
2022-08-01T14:56:52.639Z,6.00
2022-08-01T14:59:38.837Z,2.30
2022-08-01T15:02:27.656Z,3.83
2022-08-01T15:05:13.941Z,2.25
2022-08-01T15:08:01.603Z,3.67
2022-08-01T15:10:47.977Z,3.22
2022-08-01T15:13:36.280Z,3.15
2022-08-01T15:16:25.759Z,5.25
2022-08-01T15:19:12.711Z,3.00
2022-08-01T15:22:03.413Z,4.75
2022-08-01T15:24:56.814Z,2.72
2022-08-01T15:27:44.021Z,4.03
2022-08-01T15:30:30.474Z,3.33
2022-08-01T15:33:17.678Z,3.22
2022-08-01T15:36:03.882Z,4.30
2022-08-01T15:38:50.313Z,8.88
2022-08-01T15:41:38.179Z,4.57
2022-08-01T15:44:24.449Z,4.93
2022-08-01T15:47:11.215Z,3.25
2022-08-01T15:50:00.370Z,3.83
2022-08-01T15:52:46.422Z,5.47
2022-08-01T15:55:33.203Z,5.07
2022-08-01T15:58:21.783Z,1.85
2022-08-01T16:01:08.131Z,3.38
2022-08-01T16:03:54.494Z,3.42
2022-08-01T16:06:40.920Z,2.95
2022-08-01T16:09:29.916Z,4.32
2022-08-01T16:12:15.855Z,2.90
2022-08-01T16:15:03.781Z,2.85
2022-08-01T16:17:50.084Z,3.92
2022-08-01T16:20:42.790Z,4.95
2022-08-01T16:23:31.388Z,2.75
2022-08-01T16:26:27.053Z,5.10
2022-08-01T16:29:14.216Z,3.97
2022-08-01T16:32:12.846Z,4.13
2022-08-01T16:35:09.374Z,4.73
2022-08-01T16:37:55.845Z,5.40
2022-08-01T16:40:47.337Z,5.00
2022-08-01T16:43:36.031Z,7.63
2022-08-01T16:46:23.859Z,4.23
2022-08-01T16:49:12.800Z,3.53
2022-08-01T16:51:58.882Z,4.23
2022-08-01T16:54:44.997Z,6.97
2022-08-01T16:57:36.802Z,5.53
2022-08-01T17:00:26.006Z,3.40
2022-08-01T17:03:17.755Z,4.50
2022-08-01T17:06:22.719Z,4.87
2022-08-01T17:09:09.352Z,2.93
2022-08-01T17:11:55.879Z,4.37
2022-08-01T17:14:42.326Z,3.43
2022-08-01T17:17:29.648Z,3.73
2022-08-01T17:20:15.699Z,7.50
2022-08-01T17:23:03.275Z,3.20
2022-08-01T17:25:49.383Z,5.50
2022-08-01T17:28:35.535Z,5.03
2022-08-01T17:31:21.961Z,6.80
2022-08-01T17:34:08.070Z,3.63
2022-08-01T17:36:54.554Z,3.57
2022-08-01T17:39:42.062Z,5.73
2022-08-01T17:42:30.054Z,4.60
2022-08-01T17:45:27.496Z,7.57
2022-08-01T17:48:17.000Z,4.93
2022-08-01T17:51:03.208Z,5.83
2022-08-01T17:53:55.796Z,5.03
2022-08-01T17:56:46.073Z,3.10
2022-08-01T17:59:32.799Z,3.07
2022-08-01T18:02:19.045Z,8.83
2022-08-01T18:05:09.511Z,5.67
2022-08-01T18:08:00.653Z,2.40
2022-08-01T18:10:48.753Z,3.77
2022-08-01T18:13:36.629Z,4.03
2022-08-01T18:16:28.231Z,5.33
2022-08-01T18:19:14.849Z,5.70
2022-08-01T18:22:01.224Z,4.00
2022-08-01T18:24:47.522Z,2.97
2022-08-01T18:28:22.644Z,4.20
2022-08-01T18:30:41.811Z,5.27
2022-08-01T18:33:28.088Z,4.03
2022-08-01T18:36:30.704Z,4.03
2022-08-01T18:39:19.874Z,4.43
2022-08-01T18:42:06.605Z,3.73
2022-08-01T18:44:53.010Z,4.93
2022-08-01T18:47:41.007Z,4.00
2022-08-01T18:50:27.647Z,5.00
2022-08-01T18:53:13.747Z,4.70
2022-08-01T18:56:00.184Z,5.00
2022-08-01T18:58:46.255Z,4.13
2022-08-01T19:01:32.731Z,4.27
2022-08-01T19:04:21.610Z,3.50
2022-08-01T19:07:08.480Z,7.53
2022-08-01T19:09:55.304Z,6.70
2022-08-01T19:12:42.336Z,4.90
2022-08-01T19:15:28.523Z,2.57
2022-08-01T19:18:15.664Z,5.53
2022-08-01T19:21:04.411Z,3.40
2022-08-01T19:24:08.600Z,5.37
2022-08-01T19:26:56.756Z,7.50
2022-08-01T19:29:43.361Z,4.10
2022-08-01T19:32:32.805Z,4.87
2022-08-01T19:35:19.711Z,6.00
2022-08-01T19:38:07.275Z,3.77
2022-08-01T19:40:54.062Z,2.80
2022-08-01T19:43:46.388Z,5.00
2022-08-01T19:46:33.045Z,4.37
2022-08-01T19:49:21.480Z,17.43
2022-08-01T19:52:08.648Z,4.37
2022-08-01T19:54:57.508Z,5.37
2022-08-01T19:57:47.440Z,4.60
2022-08-01T20:00:38.761Z,4.93
2022-08-01T20:03:28.097Z,4.70
2022-08-01T20:06:14.632Z,4.27
2022-08-01T20:09:00.762Z,4.67
2022-08-01T20:11:50.765Z,7.80
2022-08-01T20:14:36.960Z,4.93
2022-08-01T20:17:24.480Z,18.67
2022-08-01T20:20:11.679Z,3.83
2022-08-01T20:22:58.878Z,4.57
2022-08-01T20:25:48.188Z,3.57
2022-08-01T20:28:38.462Z,5.90
2022-08-01T20:31:28.872Z,5.13
2022-08-01T20:34:30.532Z,4.70
2022-08-01T20:37:19.557Z,6.53
2022-08-01T20:40:28.719Z,4.23
2022-08-01T20:43:15.612Z,5.83
2022-08-01T20:46:05.445Z,4.77
2022-08-01T20:48:54.192Z,4.17
2022-08-01T20:51:42.575Z,5.20
2022-08-01T20:54:29.423Z,6.10
2022-08-01T20:57:23.391Z,3.23
2022-08-01T21:00:10.903Z,4.93
2022-08-01T21:03:06.562Z,4.20
2022-08-01T21:05:59.147Z,5.97
2022-08-01T21:08:49.764Z,3.43
2022-08-01T21:11:43.443Z,6.33
2022-08-01T21:14:41.445Z,5.23
2022-08-01T21:17:38.400Z,6.67
2022-08-01T21:20:28.961Z,4.27
2022-08-01T21:23:21.557Z,4.07
2022-08-01T21:26:12.328Z,2.97
2022-08-01T21:29:02.439Z,3.63
2022-08-01T21:32:11.339Z,4.07
2022-08-01T21:35:00.433Z,5.33
2022-08-01T21:37:52.449Z,5.43
2022-08-01T21:40:41.775Z,6.37
2022-08-01T21:43:29.267Z,5.03
2022-08-01T21:46:17.936Z,3.17
2022-08-01T21:49:04.860Z,3.57
2022-08-01T21:51:58.436Z,5.00
2022-08-01T21:55:02.390Z,5.80
2022-08-01T21:58:20.416Z,8.90
2022-08-01T22:01:09.050Z,9.87
2022-08-01T22:03:59.904Z,3.87
2022-08-01T22:06:49.884Z,4.20
2022-08-01T22:09:39.240Z,4.63
2022-08-01T22:12:27.424Z,3.67
2022-08-01T22:15:14.610Z,4.03
2022-08-01T22:18:01.636Z,3.80
2022-08-01T22:20:48.230Z,5.17
2022-08-01T22:23:37.590Z,2.97
2022-08-01T22:26:28.949Z,4.23
2022-08-01T22:29:17.897Z,4.13
2022-08-01T22:32:04.398Z,3.60
2022-08-01T22:34:52.201Z,4.93
2022-08-01T22:37:56.357Z,4.73
2022-08-01T22:40:49.440Z,2.90
2022-08-01T22:43:41.042Z,4.30
2022-08-01T22:46:32.456Z,7.60
2022-08-01T22:49:27.300Z,4.83
2022-08-01T22:52:18.586Z,2.43
2022-08-01T22:55:08.264Z,3.07
2022-08-01T22:58:00.073Z,3.50
2022-08-01T23:00:49.510Z,5.57
2022-08-01T23:03:41.066Z,4.27
2022-08-01T23:06:35.171Z,7.30
2022-08-01T23:09:22.719Z,3.70
2022-08-01T23:12:27.488Z,3.57
2022-08-01T23:15:14.630Z,2.80
2022-08-01T23:18:04.603Z,5.03
2022-08-01T23:20:52.824Z,7.63
2022-08-01T23:23:40.493Z,3.03
2022-08-01T23:26:29.975Z,2.87
2022-08-01T23:29:16.129Z,3.53
2022-08-01T23:32:03.444Z,6.40
2022-08-01T23:34:50.493Z,5.93
2022-08-01T23:37:38.196Z,5.57
2022-08-01T23:40:24.823Z,4.10
2022-08-01T23:43:16.733Z,3.20
2022-08-01T23:46:05.478Z,2.70
2022-08-01T23:48:51.771Z,4.33
2022-08-01T23:51:38.189Z,3.93
2022-08-01T23:54:26.360Z,2.67
2022-08-01T23:57:13.455Z,2.97
